createdAt,value
2017-09-14T00:01:29.023Z,4.47
2017-09-14T00:03:58.407Z,5.17
2017-09-14T00:06:27.679Z,5.17
2017-09-14T00:08:56.887Z,4.00
2017-09-14T00:11:26.279Z,4.23
2017-09-14T00:13:55.675Z,6.20
2017-09-14T00:16:26.053Z,13.73
2017-09-14T00:18:55.202Z,9.40
2017-09-14T00:21:24.693Z,5.30
2017-09-14T00:23:53.910Z,4.40
2017-09-14T00:26:53.528Z,5.03
2017-09-14T00:29:22.792Z,4.80
2017-09-14T00:31:53.356Z,5.80
2017-09-14T00:34:22.613Z,3.73
2017-09-14T00:36:51.827Z,12.13
2017-09-14T00:39:21.773Z,4.20
2017-09-14T00:41:51.159Z,5.13
2017-09-14T00:44:20.485Z,5.97
2017-09-14T00:46:49.882Z,4.47
2017-09-14T00:49:19.145Z,3.77
2017-09-14T00:51:49.422Z,5.60
2017-09-14T00:54:18.692Z,7.47
2017-09-14T00:56:47.874Z,13.87
2017-09-14T00:59:18.218Z,10.70
2017-09-14T01:01:47.490Z,5.63
2017-09-14T01:04:17.772Z,6.33
2017-09-14T01:06:47.130Z,4.60
2017-09-14T01:09:17.073Z,4.37
2017-09-14T01:11:46.747Z,5.30
2017-09-14T01:14:16.126Z,6.60
2017-09-14T01:16:46.876Z,4.63
2017-09-14T01:19:16.959Z,6.30
2017-09-14T01:21:46.666Z,5.50
2017-09-14T01:24:18.891Z,4.70
2017-09-14T01:26:48.107Z,6.10
2017-09-14T01:29:17.402Z,7.53
2017-09-14T01:31:46.779Z,5.73
2017-09-14T01:34:16.881Z,4.63
2017-09-14T01:36:46.108Z,4.13
2017-09-14T01:39:15.304Z,3.67
2017-09-14T01:41:45.943Z,4.33
2017-09-14T01:44:15.111Z,3.87
2017-09-14T01:46:44.291Z,5.20
2017-09-14T01:49:13.684Z,4.40
2017-09-14T01:51:44.195Z,4.40
2017-09-14T01:54:13.454Z,4.77
2017-09-14T01:56:42.755Z,3.50
2017-09-14T01:59:12.061Z,4.43
2017-09-14T02:01:41.251Z,4.20
2017-09-14T02:04:10.459Z,3.70
2017-09-14T02:06:39.720Z,3.90
2017-09-14T02:09:09.292Z,3.97
2017-09-14T02:11:38.858Z,8.50
2017-09-14T02:14:08.166Z,5.80
2017-09-14T02:16:38.127Z,4.03
2017-09-14T02:19:07.341Z,6.00
2017-09-14T02:21:36.538Z,4.40
2017-09-14T02:24:06.682Z,4.50
2017-09-14T02:26:36.599Z,4.90
2017-09-14T02:29:05.804Z,4.20
2017-09-14T02:31:35.009Z,3.93
2017-09-14T02:34:04.184Z,4.43
2017-09-14T02:36:33.474Z,4.50
2017-09-14T02:39:02.668Z,6.27
2017-09-14T02:41:32.604Z,5.20
2017-09-14T02:44:01.764Z,5.53
2017-09-14T02:46:30.934Z,5.20
2017-09-14T02:49:00.493Z,4.67
2017-09-14T02:51:29.669Z,4.37
2017-09-14T02:53:58.899Z,4.97
2017-09-14T02:56:28.124Z,7.20
2017-09-14T02:58:58.128Z,7.20
2017-09-14T03:01:28.520Z,9.00
2017-09-14T03:03:57.643Z,6.80
2017-09-14T03:06:26.795Z,5.40
2017-09-14T03:08:55.989Z,4.53
2017-09-14T03:11:25.192Z,7.17
2017-09-14T03:13:54.311Z,5.63
2017-09-14T03:16:23.510Z,5.10
2017-09-14T03:18:52.801Z,4.60
2017-09-14T03:21:22.050Z,5.43
2017-09-14T03:23:52.467Z,7.47
2017-09-14T03:26:22.529Z,3.80
2017-09-14T03:28:51.795Z,3.97
2017-09-14T03:31:21.827Z,3.13
2017-09-14T03:33:50.958Z,3.93
2017-09-14T03:36:20.316Z,5.93
2017-09-14T03:38:50.221Z,4.93
2017-09-14T03:41:20.121Z,4.67
2017-09-14T03:43:49.674Z,5.00
2017-09-14T03:46:18.904Z,3.30
2017-09-14T03:48:48.095Z,4.43
2017-09-14T03:51:17.322Z,4.10
2017-09-14T03:53:46.475Z,5.70
2017-09-14T03:56:15.608Z,4.93
2017-09-14T03:58:44.758Z,5.93
2017-09-14T04:01:14.036Z,5.27
2017-09-14T04:03:43.317Z,5.37
2017-09-14T04:06:13.038Z,4.57
2017-09-14T04:08:42.323Z,5.03
2017-09-14T04:11:12.306Z,4.93
2017-09-14T04:13:41.422Z,4.20
2017-09-14T04:16:10.627Z,12.53
2017-09-14T04:18:39.876Z,6.83
2017-09-14T04:21:09.355Z,4.53
2017-09-14T04:23:39.275Z,4.47
2017-09-14T04:26:08.495Z,7.60
2017-09-14T04:28:38.085Z,4.97
2017-09-14T04:31:07.280Z,5.87
2017-09-14T04:33:37.302Z,5.80
2017-09-14T04:36:06.463Z,4.57
2017-09-14T04:38:35.618Z,5.80
2017-09-14T04:41:04.914Z,7.97
2017-09-14T04:43:34.094Z,5.30
2017-09-14T04:46:03.264Z,5.53
2017-09-14T04:48:32.406Z,4.47
2017-09-14T04:51:01.791Z,4.40
2017-09-14T04:53:30.959Z,5.53
2017-09-14T04:56:01.155Z,4.63
2017-09-14T04:58:30.280Z,4.37
2017-09-14T05:01:00.445Z,3.60
2017-09-14T05:03:29.670Z,4.17
2017-09-14T05:05:58.842Z,6.13
2017-09-14T05:08:28.398Z,5.00
2017-09-14T05:10:58.448Z,4.67
2017-09-14T05:13:28.382Z,6.63
2017-09-14T05:15:57.633Z,5.10
2017-09-14T05:18:27.848Z,4.30
2017-09-14T05:20:57.865Z,6.83
2017-09-14T05:23:27.905Z,5.07
2017-09-14T05:25:57.135Z,5.47
2017-09-14T05:28:26.352Z,3.73
2017-09-14T05:30:55.853Z,4.33
2017-09-14T05:33:25.802Z,5.77
2017-09-14T05:35:55.035Z,5.20
2017-09-14T05:38:24.765Z,4.30
2017-09-14T05:40:54.017Z,5.87
2017-09-14T05:43:23.280Z,5.13
2017-09-14T05:45:52.682Z,5.60
2017-09-14T05:48:21.937Z,4.60
2017-09-14T05:50:51.440Z,4.17
2017-09-14T05:53:21.488Z,5.20
2017-09-14T05:55:50.717Z,3.70
2017-09-14T05:58:20.683Z,5.03
2017-09-14T06:00:49.900Z,4.17
2017-09-14T06:03:19.043Z,4.90
2017-09-14T06:05:49.527Z,4.10
2017-09-14T06:08:19.378Z,4.13
2017-09-14T06:10:48.554Z,3.97
2017-09-14T06:13:19.917Z,5.30
2017-09-14T06:15:51.034Z,4.10
2017-09-14T06:18:20.531Z,5.10
2017-09-14T06:20:49.887Z,4.13
2017-09-14T06:23:19.528Z,3.43
2017-09-14T06:25:48.737Z,4.10
2017-09-14T06:28:18.216Z,4.60
2017-09-14T06:30:48.320Z,3.10
2017-09-14T06:33:18.514Z,2.63
2017-09-14T06:35:47.926Z,2.60
2017-09-14T06:38:17.410Z,2.80
2017-09-14T06:40:47.721Z,2.90
2017-09-14T06:43:17.063Z,2.53
2017-09-14T06:45:47.474Z,3.10
2017-09-14T06:48:17.313Z,2.73
2017-09-14T06:50:47.809Z,2.17
2017-09-14T06:53:17.824Z,3.13
2017-09-14T06:55:47.053Z,2.50
2017-09-14T06:58:17.032Z,2.07
2017-09-14T07:00:46.550Z,2.50
2017-09-14T07:03:15.793Z,2.90
2017-09-14T07:05:45.867Z,3.00
2017-09-14T07:08:15.197Z,2.40
2017-09-14T07:10:45.924Z,2.50
2017-09-14T07:13:17.063Z,4.10
2017-09-14T07:15:47.038Z,3.17
2017-09-14T07:18:16.711Z,21.70
2017-09-14T07:20:47.753Z,3.17
2017-09-14T07:23:17.461Z,4.57
2017-09-14T07:25:46.690Z,3.03
2017-09-14T07:28:16.158Z,2.70
2017-09-14T07:30:46.180Z,3.83
2017-09-14T07:33:16.811Z,3.10
2017-09-14T07:35:46.825Z,3.10
2017-09-14T07:38:16.152Z,4.30
2017-09-14T07:40:45.431Z,3.47
2017-09-14T07:43:15.346Z,3.23
2017-09-14T07:45:46.378Z,2.90
2017-09-14T07:48:16.568Z,2.57
2017-09-14T07:50:45.850Z,2.70
2017-09-14T07:53:15.208Z,2.30
2017-09-14T07:55:44.474Z,5.70
2017-09-14T07:58:13.620Z,3.83
2017-09-14T08:00:43.177Z,3.80
2017-09-14T08:03:12.462Z,3.20
2017-09-14T08:05:42.024Z,3.53
2017-09-14T08:08:12.169Z,3.30
2017-09-14T08:10:41.662Z,4.73
2017-09-14T08:13:14.514Z,3.50
2017-09-14T08:15:44.221Z,3.10
2017-09-14T08:18:13.586Z,5.77
2017-09-14T08:20:43.619Z,3.70
2017-09-14T08:23:13.040Z,3.73
2017-09-14T08:25:43.346Z,3.07
2017-09-14T08:28:14.385Z,5.53
2017-09-14T08:30:45.094Z,2.83
2017-09-14T08:33:14.356Z,2.00
2017-09-14T08:35:43.831Z,3.20
2017-09-14T08:38:13.316Z,6.50
2017-09-14T08:40:43.311Z,3.27
2017-09-14T08:43:13.280Z,3.20
2017-09-14T08:45:43.612Z,2.27
2017-09-14T08:48:12.984Z,3.30
2017-09-14T08:50:43.036Z,3.07
2017-09-14T08:53:13.155Z,2.40
2017-09-14T08:55:43.883Z,3.47
2017-09-14T08:58:14.972Z,3.00
2017-09-14T09:00:44.726Z,3.17
2017-09-14T09:03:14.001Z,2.57
2017-09-14T09:05:43.455Z,4.67
2017-09-14T09:08:13.507Z,3.27
2017-09-14T09:10:43.972Z,3.43
2017-09-14T09:13:13.726Z,6.40
2017-09-14T09:15:43.014Z,3.93
2017-09-14T09:18:14.271Z,3.47
2017-09-14T09:20:44.645Z,2.53
2017-09-14T09:23:13.962Z,2.50
2017-09-14T09:25:43.602Z,3.93
2017-09-14T09:28:13.684Z,3.17
2017-09-14T09:30:43.991Z,2.77
2017-09-14T09:33:13.331Z,2.57
2017-09-14T09:35:42.857Z,4.47
2017-09-14T09:38:13.793Z,4.33
2017-09-14T09:40:47.401Z,3.43
2017-09-14T09:43:18.350Z,2.80
2017-09-14T09:45:49.124Z,3.13
2017-09-14T09:48:19.637Z,3.20
2017-09-14T09:50:49.364Z,2.70
2017-09-14T09:53:19.154Z,2.90
2017-09-14T09:55:54.297Z,2.20
2017-09-14T09:58:24.139Z,3.50
2017-09-14T10:00:54.946Z,3.47
2017-09-14T10:03:25.196Z,4.40
2017-09-14T10:05:55.740Z,3.00
2017-09-14T10:08:27.949Z,2.97
2017-09-14T10:10:59.995Z,4.40
2017-09-14T10:13:30.574Z,2.80
2017-09-14T10:16:00.638Z,2.90
2017-09-14T10:18:30.399Z,2.60
2017-09-14T10:21:00.341Z,2.60
2017-09-14T10:23:30.034Z,3.90
2017-09-14T10:25:59.346Z,3.23
2017-09-14T10:28:30.199Z,2.67
2017-09-14T10:31:01.102Z,3.10
2017-09-14T10:33:31.326Z,2.50
2017-09-14T10:36:01.852Z,6.60
2017-09-14T10:38:32.065Z,3.27
2017-09-14T10:41:02.271Z,2.93
2017-09-14T10:43:32.469Z,3.20
2017-09-14T10:46:02.907Z,2.33
2017-09-14T10:48:34.906Z,4.30
2017-09-14T10:51:07.851Z,2.40
2017-09-14T10:53:38.359Z,3.50
2017-09-14T10:56:09.729Z,2.90
2017-09-14T10:58:40.111Z,6.23
2017-09-14T11:01:09.707Z,5.17
2017-09-14T11:03:40.931Z,3.07
2017-09-14T11:06:12.438Z,3.07
2017-09-14T11:08:46.594Z,2.57
2017-09-14T11:11:16.967Z,2.10
2017-09-14T11:13:48.529Z,5.30
2017-09-14T11:16:21.359Z,2.43
2017-09-14T11:18:52.718Z,4.20
2017-09-14T11:21:22.952Z,2.63
2017-09-14T11:23:53.447Z,3.53
2017-09-14T11:26:23.305Z,6.17
2017-09-14T11:28:54.773Z,18.87
2017-09-14T11:31:25.375Z,2.60
2017-09-14T11:33:55.335Z,6.37
2017-09-14T11:36:26.899Z,5.63
2017-09-14T11:38:56.729Z,3.97
2017-09-14T11:41:26.076Z,5.17
2017-09-14T11:43:56.335Z,2.53
2017-09-14T11:46:25.744Z,3.03
2017-09-14T11:48:56.047Z,2.43
2017-09-14T11:51:25.451Z,4.90
2017-09-14T11:53:55.302Z,3.10
2017-09-14T11:56:25.073Z,2.60
2017-09-14T11:59:04.962Z,4.30
2017-09-14T12:01:38.165Z,3.80
2017-09-14T12:04:17.315Z,3.40
2017-09-14T12:06:50.174Z,3.50
2017-09-14T12:09:21.972Z,2.80
2017-09-14T12:11:54.652Z,4.90
2017-09-14T12:14:25.637Z,21.13
2017-09-14T12:57:03.675Z,3.47
2017-09-14T12:59:40.792Z,2.70
2017-09-14T13:02:13.408Z,5.77
2017-09-14T13:04:44.604Z,6.03
2017-09-14T13:07:15.891Z,3.33
2017-09-14T13:09:45.914Z,5.67
2017-09-14T13:12:16.187Z,3.70
2017-09-14T13:14:54.002Z,8.73
2017-09-14T13:17:29.178Z,2.57
2017-09-14T13:20:01.456Z,2.33
2017-09-14T13:22:31.220Z,3.57
2017-09-14T13:25:01.076Z,3.70
2017-09-14T13:31:01.834Z,3.40
2017-09-14T13:33:32.802Z,1.93
2017-09-14T13:36:32.853Z,2.93
2017-09-14T13:53:52.866Z,3.07
2017-09-14T13:59:42.414Z,3.03
2017-09-14T14:02:28.603Z,5.13
2017-09-14T14:09:52.499Z,4.07
2017-09-14T14:12:22.253Z,11.10
2017-09-14T14:14:53.094Z,4.63
2017-09-14T14:17:23.625Z,3.40
2017-09-14T14:19:55.053Z,2.40
2017-09-14T14:22:25.175Z,3.10
2017-09-14T14:24:54.684Z,2.60
2017-09-14T14:27:25.273Z,2.70
2017-09-14T14:29:56.140Z,3.90
2017-09-14T14:33:05.110Z,18.03
2017-09-14T14:35:35.564Z,2.90
2017-09-14T14:38:07.139Z,2.30
2017-09-14T14:40:39.506Z,2.20
2017-09-14T14:43:08.892Z,2.53
2017-09-14T14:45:39.307Z,2.13
2017-09-14T14:48:09.247Z,7.50
2017-09-14T14:50:39.031Z,9.83
2017-09-14T14:53:08.956Z,3.23
2017-09-14T14:55:38.946Z,3.03
2017-09-14T14:58:56.810Z,3.83
2017-09-14T15:01:27.252Z,4.47
2017-09-14T15:03:57.523Z,2.67
2017-09-14T15:06:27.210Z,3.00
2017-09-14T15:08:57.658Z,2.10
2017-09-14T15:11:28.652Z,10.33
2017-09-14T15:13:58.986Z,2.40
2017-09-14T15:16:29.110Z,4.50
2017-09-14T15:19:00.331Z,3.43
2017-09-14T15:21:31.488Z,5.87
2017-09-14T15:24:02.228Z,3.50
2017-09-14T15:26:33.021Z,3.00
2017-09-14T15:29:02.558Z,3.20
2017-09-14T15:31:33.140Z,3.40
2017-09-14T15:34:04.435Z,2.50
2017-09-14T15:36:36.720Z,2.70
2017-09-14T15:39:11.691Z,3.50
2017-09-14T15:41:45.079Z,2.87
2017-09-14T15:44:18.630Z,2.20
2017-09-14T15:46:49.650Z,2.43
2017-09-14T15:49:24.065Z,3.73
2017-09-14T15:51:54.205Z,3.30
2017-09-14T15:54:23.874Z,3.10
2017-09-14T15:56:54.196Z,2.37
2017-09-14T15:59:25.177Z,4.77
2017-09-14T16:01:59.716Z,11.83
2017-09-14T16:04:29.695Z,6.73
2017-09-14T16:07:00.073Z,8.77
2017-09-14T16:09:29.590Z,4.67
2017-09-14T16:11:59.565Z,4.93
2017-09-14T16:14:30.406Z,5.33
2017-09-14T16:17:01.028Z,3.97
2017-09-14T16:19:33.132Z,4.10
2017-09-14T16:22:04.665Z,3.90
2017-09-14T16:24:34.875Z,4.40
2017-09-14T16:27:07.017Z,3.60
2017-09-14T16:29:37.029Z,4.97
2017-09-14T16:32:14.840Z,3.10
2017-09-14T16:34:50.038Z,8.70
2017-09-14T16:37:21.089Z,21.20
2017-09-14T16:39:51.270Z,17.87
2017-09-14T16:42:22.774Z,4.07
2017-09-14T16:44:52.426Z,4.90
2017-09-14T16:47:23.337Z,5.27
2017-09-14T16:49:53.661Z,4.07
2017-09-14T16:52:24.542Z,10.13
2017-09-14T16:54:55.408Z,21.03
2017-09-14T16:57:24.869Z,86.10
2017-09-14T16:59:55.483Z,6.57
2017-09-14T17:02:25.498Z,17.73
2017-09-14T17:04:56.281Z,23.13
2017-09-14T17:07:26.872Z,7.13
2017-09-14T17:09:56.549Z,4.40
2017-09-14T17:12:28.804Z,12.43
2017-09-14T17:15:03.930Z,7.67
2017-09-14T17:17:34.718Z,31.67
2017-09-14T17:20:04.632Z,19.03
2017-09-14T17:22:34.917Z,4.53
2017-09-14T17:25:05.210Z,16.37
2017-09-14T17:27:34.901Z,8.97
2017-09-14T17:30:05.043Z,6.27
2017-09-14T17:32:35.425Z,5.07
2017-09-14T17:35:05.177Z,28.43
2017-09-14T17:41:01.562Z,11.30
2017-09-14T17:43:31.375Z,11.53
2017-09-14T17:46:00.779Z,5.57
2017-09-14T17:48:30.754Z,22.83
2017-09-14T17:51:01.464Z,30.00
2017-09-14T17:53:31.157Z,16.03
2017-09-14T17:56:01.787Z,31.67
2017-09-14T17:58:32.134Z,17.43
2017-09-14T18:01:02.207Z,12.27
2017-09-14T18:03:32.566Z,23.60
2017-09-14T18:06:03.072Z,30.93
2017-09-14T18:08:32.839Z,16.53
2017-09-14T18:11:02.591Z,11.03
2017-09-14T18:13:33.262Z,17.23
2017-09-14T18:16:04.720Z,59.57
2017-09-14T18:21:15.698Z,55.13
2017-09-14T18:23:46.341Z,13.80
2017-09-14T18:26:16.606Z,20.07
2017-09-14T18:28:46.625Z,17.13
2017-09-14T18:31:17.538Z,49.23
2017-09-14T18:33:48.778Z,15.47
2017-09-14T18:36:18.680Z,21.17
2017-09-14T18:39:51.288Z,53.23
2017-09-14T18:42:48.306Z,17.03
2017-09-14T18:45:18.162Z,69.73
2017-09-14T18:48:51.292Z,5.07
2017-09-14T18:51:22.938Z,16.93
2017-09-14T18:54:05.464Z,23.83
2017-09-14T18:56:38.289Z,6.77
2017-09-14T18:59:10.137Z,34.87
2017-09-14T19:01:42.133Z,103.73
2017-09-14T19:04:22.759Z,20.53
2017-09-14T19:07:05.035Z,58.30
2017-09-14T19:09:37.041Z,20.13
2017-09-14T19:12:07.617Z,9.33
2017-09-14T19:14:40.897Z,31.23
2017-09-14T19:17:12.303Z,70.63
2017-09-14T19:19:54.656Z,156.80
2017-09-14T19:25:04.830Z,15.73
2017-09-14T19:27:35.367Z,13.50
2017-09-14T19:30:08.281Z,32.80
2017-09-14T19:32:38.380Z,14.37
2017-09-14T19:35:11.721Z,25.90
2017-09-14T19:37:43.059Z,59.93
2017-09-14T19:40:17.785Z,40.33
2017-09-14T19:43:00.626Z,48.53
2017-09-14T19:45:41.147Z,29.00
2017-09-14T19:48:13.522Z,40.87
2017-09-14T19:50:48.772Z,61.30
2017-09-14T19:53:18.782Z,41.07
2017-09-14T19:55:48.514Z,65.83
2017-09-14T19:58:23.382Z,29.73
2017-09-14T20:00:52.900Z,68.83
2017-09-14T20:03:24.920Z,56.67
2017-09-14T20:06:02.282Z,42.00
2017-09-14T20:09:04.441Z,21.60
2017-09-14T20:11:34.003Z,15.60
2017-09-14T20:14:03.770Z,9.40
2017-09-14T20:16:35.355Z,10.20
2017-09-14T20:19:06.662Z,16.83
2017-09-14T20:21:38.051Z,19.70
2017-09-14T20:24:10.920Z,26.00
2017-09-14T20:26:42.128Z,20.03
2017-09-14T20:29:14.871Z,15.30
2017-09-14T20:31:44.791Z,57.77
2017-09-14T20:34:16.586Z,24.83
2017-09-14T20:36:46.842Z,13.97
2017-09-14T20:39:16.705Z,10.50
2017-09-14T20:41:47.680Z,14.67
2017-09-14T20:44:23.464Z,12.77
2017-09-14T20:46:53.522Z,12.30
2017-09-14T20:49:22.938Z,16.50
2017-09-14T20:51:53.250Z,15.43
2017-09-14T20:54:24.774Z,234.50
2017-09-14T20:56:54.960Z,309.23
2017-09-14T20:59:25.241Z,122.77
2017-09-14T21:02:01.461Z,46.43
2017-09-14T21:04:32.289Z,99.57
2017-09-14T21:07:02.918Z,51.80
2017-09-14T21:09:32.971Z,35.37
2017-09-14T21:12:02.523Z,15.13
2017-09-14T21:14:40.040Z,10.17
2017-09-14T21:17:09.444Z,21.33
2017-09-14T21:19:39.813Z,8.53
2017-09-14T21:22:09.103Z,12.20
2017-09-14T21:24:40.461Z,15.60
2017-09-14T21:27:09.866Z,25.20
2017-09-14T21:29:39.284Z,28.13
2017-09-14T21:32:09.113Z,29.37
2017-09-14T21:34:39.093Z,48.33
2017-09-14T21:37:09.778Z,30.23
2017-09-14T21:39:45.341Z,43.10
2017-09-14T21:42:16.062Z,37.70
2017-09-14T21:44:45.712Z,22.57
2017-09-14T21:47:15.558Z,40.83
2017-09-14T21:49:44.820Z,15.57
2017-09-14T21:52:14.216Z,17.10
2017-09-14T21:54:46.781Z,23.17
2017-09-14T21:57:22.317Z,15.57
2017-09-14T21:59:53.268Z,83.63
2017-09-14T22:02:45.245Z,82.00
2017-09-14T22:05:24.144Z,50.97
2017-09-14T22:07:54.547Z,76.73
2017-09-14T22:10:23.974Z,13.40
2017-09-14T22:12:54.200Z,10.13
2017-09-14T22:15:24.800Z,16.50
2017-09-14T22:17:56.406Z,14.43
2017-09-14T22:20:26.208Z,45.07
2017-09-14T22:22:56.122Z,15.07
2017-09-14T22:25:26.351Z,13.50
2017-09-14T22:27:55.818Z,12.87
2017-09-14T22:30:25.963Z,21.03
2017-09-14T22:44:33.226Z,8.70
2017-09-14T22:47:05.502Z,17.97
2017-09-14T22:49:34.768Z,8.33
2017-09-14T22:52:04.604Z,12.07
2017-09-14T22:54:35.212Z,13.80
2017-09-14T22:57:05.649Z,11.70
2017-09-14T22:59:36.475Z,20.27
2017-09-14T23:02:06.495Z,29.17
2017-09-14T23:04:36.744Z,19.63
2017-09-14T23:07:06.246Z,9.10
2017-09-14T23:09:36.340Z,106.00
2017-09-14T23:12:05.539Z,24.83
2017-09-14T23:14:35.549Z,38.67
2017-09-14T23:17:06.050Z,10.03
2017-09-14T23:19:36.734Z,5.87
2017-09-14T23:22:06.427Z,20.93
2017-09-14T23:24:36.367Z,8.43
2017-09-14T23:27:05.709Z,13.17
2017-09-14T23:29:35.013Z,36.53
2017-09-14T23:32:04.789Z,17.93
2017-09-14T23:34:36.348Z,12.30
2017-09-14T23:37:08.735Z,40.40
2017-09-14T23:39:44.628Z,44.33
2017-09-14T23:42:14.894Z,31.13
2017-09-14T23:44:44.096Z,17.43
2017-09-14T23:47:13.397Z,10.10
2017-09-14T23:49:42.625Z,18.53
2017-09-14T23:52:11.977Z,22.37
2017-09-14T23:54:41.547Z,13.60
2017-09-14T23:57:11.250Z,22.90
2017-09-14T23:59:40.906Z,18.87
